Boyero, Colorado
Current Conditions -  °F | °C
As of 5:55 PM on Saturday 22 Nov 2014 (Local Time) from KLIC Reporting Station
Clear Clear  
Wind Chill: 34°   Ceiling: Unl
Heat Index: 38°   Visibility: 10mi
Dew Point: 15°   Wind: 5mph
Humidity: 39%   Direction: 350°N
Pressure: 29.58"   Gusts: NA
Location:  38.9913°N, 103.506°W
Report Text: KLIC 230055Z AUTO 35004KT 10SM CLR 03/M09 A2958 RMK AO2 SLP008 T00331094
Loading
Personal Weather Stations






























Interactive Weather Map New forecast layout! Learn more

10-Day Weather Forecast

Advertisements
Track Severe Weather on mobile